createdAt,value
2023-03-17T00:01:24.011Z,2.50
2023-03-17T00:03:51.542Z,2.40
2023-03-17T00:06:29.224Z,2.50
2023-03-17T00:08:57.342Z,2.50
2023-03-17T00:11:26.446Z,2.50
2023-03-17T00:13:53.472Z,2.50
2023-03-17T00:16:25.517Z,2.50
2023-03-17T00:18:54.626Z,2.50
2023-03-17T00:21:32.270Z,2.50
2023-03-17T00:24:00.300Z,2.60
2023-03-17T00:26:29.826Z,2.50
2023-03-17T00:28:56.950Z,2.60
2023-03-17T00:31:29.712Z,2.50
2023-03-17T00:33:58.345Z,2.60
2023-03-17T00:36:30.808Z,2.60
2023-03-17T00:38:58.860Z,2.50
2023-03-17T00:41:27.296Z,2.50
2023-03-17T00:43:54.348Z,2.50
2023-03-17T00:46:35.778Z,2.50
2023-03-17T00:49:24.997Z,2.50
2023-03-17T00:51:52.750Z,2.50
2023-03-17T00:54:21.000Z,2.50
2023-03-17T00:56:50.801Z,2.50
2023-03-17T00:59:32.397Z,2.50
2023-03-17T01:01:59.641Z,2.60
2023-03-17T01:04:26.546Z,2.60
2023-03-17T01:06:54.292Z,2.60
2023-03-17T01:09:26.944Z,2.60
2023-03-17T01:11:55.501Z,2.60
2023-03-17T01:14:24.674Z,2.50
2023-03-17T01:16:55.434Z,2.60
2023-03-17T01:19:22.959Z,2.60
2023-03-17T01:21:50.198Z,2.60
2023-03-17T01:24:17.039Z,2.70
2023-03-17T01:26:44.585Z,2.70
2023-03-17T01:29:12.036Z,2.70
2023-03-17T01:31:39.211Z,2.60
2023-03-17T01:34:06.327Z,2.60
2023-03-17T01:36:34.212Z,2.60
2023-03-17T01:39:01.424Z,2.50
2023-03-17T01:41:28.283Z,2.50
2023-03-17T01:43:55.144Z,2.50
2023-03-17T01:46:27.843Z,2.50
2023-03-17T01:49:16.322Z,2.50
2023-03-17T01:52:14.287Z,2.50
2023-03-17T01:54:46.486Z,2.50
2023-03-17T01:57:31.409Z,2.40
2023-03-17T02:00:09.220Z,2.40
2023-03-17T02:02:39.934Z,2.40
2023-03-17T02:05:12.040Z,2.40
2023-03-17T02:07:40.613Z,2.40
2023-03-17T02:10:09.034Z,2.30
2023-03-17T02:12:37.096Z,2.30
2023-03-17T02:15:05.337Z,2.40
2023-03-17T02:17:32.459Z,2.30
2023-03-17T02:20:16.000Z,2.40
2023-03-17T02:22:52.591Z,2.40
2023-03-17T02:25:23.317Z,2.30
2023-03-17T02:27:57.693Z,2.30
2023-03-17T02:30:28.716Z,2.30
2023-03-17T02:32:55.828Z,2.30
2023-03-17T02:35:23.398Z,2.30
2023-03-17T02:37:50.407Z,2.30
2023-03-17T02:40:18.658Z,2.20
2023-03-17T02:42:45.657Z,2.20
2023-03-17T02:45:14.320Z,2.20
2023-03-17T02:47:42.619Z,2.20
2023-03-17T02:50:25.785Z,2.20
2023-03-17T02:52:52.671Z,2.20
2023-03-17T02:55:20.346Z,2.20
2023-03-17T02:57:47.381Z,2.20
2023-03-17T03:00:15.455Z,2.20
2023-03-17T03:02:43.022Z,2.20
2023-03-17T03:05:10.706Z,2.20
2023-03-17T03:07:37.590Z,2.20
2023-03-17T03:10:05.718Z,2.20
2023-03-17T03:12:32.633Z,2.20
2023-03-17T03:14:59.507Z,2.20
2023-03-17T03:17:26.425Z,2.20
2023-03-17T03:19:53.596Z,2.20
2023-03-17T03:22:20.445Z,2.20
2023-03-17T03:24:47.300Z,2.20
2023-03-17T03:27:14.187Z,2.30
2023-03-17T03:29:41.681Z,2.30
2023-03-17T03:32:08.648Z,2.40
2023-03-17T03:34:35.564Z,2.30
2023-03-17T03:37:02.379Z,2.40
2023-03-17T03:39:29.216Z,2.40
2023-03-17T03:41:58.206Z,2.40
2023-03-17T03:44:25.570Z,2.40
2023-03-17T03:46:52.554Z,2.40
2023-03-17T03:49:19.498Z,2.40
2023-03-17T03:51:46.334Z,2.50
2023-03-17T03:54:13.376Z,2.50
2023-03-17T03:56:40.342Z,2.50
2023-03-17T03:59:07.553Z,2.50
2023-03-17T04:01:34.451Z,2.60
2023-03-17T04:04:01.888Z,2.60
2023-03-17T04:06:28.724Z,2.60
2023-03-17T04:08:57.879Z,2.60
2023-03-17T04:11:25.797Z,2.60
2023-03-17T04:13:52.639Z,2.60
2023-03-17T04:16:19.485Z,2.60
2023-03-17T04:18:46.371Z,2.60
2023-03-17T04:21:13.812Z,2.60
2023-03-17T04:23:40.627Z,2.70
2023-03-17T04:26:07.618Z,2.70
2023-03-17T04:28:34.594Z,2.70
2023-03-17T04:31:01.509Z,2.70
2023-03-17T04:33:28.762Z,2.70
2023-03-17T04:35:55.976Z,2.70
2023-03-17T04:38:23.125Z,2.70
2023-03-17T04:40:51.788Z,2.70
2023-03-17T04:43:18.661Z,2.70
2023-03-17T04:45:45.700Z,2.60
2023-03-17T04:48:12.547Z,2.60
2023-03-17T04:50:39.734Z,2.60
2023-03-17T04:53:06.818Z,2.60
2023-03-17T04:55:33.685Z,2.60
2023-03-17T04:58:01.044Z,2.60
2023-03-17T05:00:28.347Z,2.70
2023-03-17T05:02:55.470Z,2.60
2023-03-17T05:05:22.679Z,2.60
2023-03-17T05:07:49.505Z,2.60
2023-03-17T05:10:16.548Z,2.60
2023-03-17T05:12:43.406Z,2.60
2023-03-17T05:15:11.115Z,2.60
2023-03-17T05:17:37.944Z,2.50
2023-03-17T05:20:05.737Z,2.50
2023-03-17T05:22:32.567Z,2.50
2023-03-17T05:24:59.776Z,2.50
2023-03-17T05:27:26.968Z,2.60
2023-03-17T05:29:53.787Z,2.50
2023-03-17T05:32:20.966Z,2.50
2023-03-17T05:34:48.268Z,2.50
2023-03-17T05:37:15.622Z,2.50
2023-03-17T05:39:42.524Z,2.60
2023-03-17T05:42:09.714Z,2.60
2023-03-17T05:44:36.558Z,2.60
2023-03-17T05:47:03.408Z,2.60
2023-03-17T05:49:30.383Z,2.60
2023-03-17T05:51:57.389Z,2.60
2023-03-17T05:54:24.486Z,2.60
2023-03-17T05:56:51.519Z,2.60
2023-03-17T05:59:18.522Z,2.70
2023-03-17T06:01:45.551Z,2.70
2023-03-17T06:04:12.694Z,2.70
2023-03-17T06:06:39.964Z,2.70
2023-03-17T06:09:06.966Z,2.80
2023-03-17T06:11:33.847Z,2.80
2023-03-17T06:14:01.757Z,2.90
2023-03-17T06:16:30.734Z,2.90
2023-03-17T06:18:57.602Z,2.90
2023-03-17T06:21:24.775Z,3.00
2023-03-17T06:23:51.648Z,3.00
2023-03-17T06:26:18.554Z,3.00
2023-03-17T06:28:45.573Z,3.00
2023-03-17T06:31:12.456Z,3.10
2023-03-17T06:33:39.629Z,3.10
2023-03-17T06:36:08.141Z,3.20
2023-03-17T06:38:35.140Z,3.20
2023-03-17T06:41:01.958Z,3.20
2023-03-17T06:43:28.903Z,3.20
2023-03-17T06:45:55.786Z,3.30
2023-03-17T06:48:23.523Z,3.30
2023-03-17T06:50:50.475Z,3.30
2023-03-17T06:53:17.468Z,3.40
2023-03-17T06:55:45.029Z,3.40
2023-03-17T06:58:13.180Z,3.40
2023-03-17T07:00:40.134Z,3.50
2023-03-17T07:03:07.144Z,3.50
2023-03-17T07:05:34.142Z,3.60
2023-03-17T07:08:01.067Z,3.60
2023-03-17T07:10:28.130Z,3.70
2023-03-17T07:12:55.098Z,3.80
2023-03-17T07:15:22.092Z,3.80
2023-03-17T07:17:48.946Z,3.90
2023-03-17T07:20:16.688Z,4.00
2023-03-17T07:22:43.623Z,4.10
2023-03-17T07:38:59.235Z,4.10
2023-03-17T07:41:26.314Z,5.10
2023-03-17T07:43:53.244Z,5.10
2023-03-17T07:46:20.829Z,5.10
2023-03-17T07:48:48.288Z,5.10
2023-03-17T07:51:19.057Z,5.20
2023-03-17T07:53:46.456Z,5.30
2023-03-17T07:56:14.196Z,5.40
2023-03-17T07:58:41.769Z,5.50
2023-03-17T08:01:09.754Z,5.60
2023-03-17T08:03:38.151Z,5.50
2023-03-17T08:06:08.550Z,5.60
2023-03-17T08:08:35.956Z,5.60
2023-03-17T08:11:05.533Z,5.60
2023-03-17T08:13:32.757Z,5.60
2023-03-17T08:16:00.212Z,5.70
2023-03-17T08:18:27.078Z,5.80
2023-03-17T08:20:53.951Z,5.80
2023-03-17T08:23:21.496Z,5.90
2023-03-17T08:25:48.790Z,6.00
2023-03-17T08:28:16.343Z,6.10
2023-03-17T08:30:44.839Z,6.20
2023-03-17T08:33:11.886Z,6.30
2023-03-17T08:35:41.738Z,6.40
2023-03-17T08:38:09.153Z,6.50
2023-03-17T08:40:38.704Z,6.50
2023-03-17T08:43:07.753Z,6.40
2023-03-17T08:45:35.341Z,6.40
2023-03-17T08:48:03.194Z,6.30
2023-03-17T08:50:31.043Z,6.40
2023-03-17T08:52:58.219Z,6.40
2023-03-17T08:55:25.189Z,6.50
2023-03-17T08:57:52.489Z,6.50
2023-03-17T09:00:20.871Z,6.60
2023-03-17T09:02:48.578Z,6.70
2023-03-17T09:05:17.532Z,6.90
2023-03-17T09:07:44.922Z,7.10
2023-03-17T09:10:13.649Z,7.20
2023-03-17T09:12:40.563Z,7.40
2023-03-17T09:15:08.781Z,7.30
2023-03-17T09:17:36.015Z,7.40
2023-03-17T09:20:03.494Z,7.30
2023-03-17T09:22:31.047Z,7.30
2023-03-17T09:24:58.195Z,7.40
2023-03-17T09:27:25.046Z,7.40
2023-03-17T09:29:51.904Z,7.40
2023-03-17T09:32:18.799Z,7.40
2023-03-17T09:34:46.234Z,7.40
2023-03-17T09:37:13.674Z,7.50
2023-03-17T09:39:41.382Z,7.40
2023-03-17T09:42:41.462Z,7.50
2023-03-17T09:45:23.399Z,7.40
2023-03-17T09:48:22.574Z,7.50
2023-03-17T09:51:11.838Z,7.50
2023-03-17T09:53:59.960Z,7.60
2023-03-17T09:56:33.708Z,7.70
2023-03-17T09:59:08.682Z,7.70
2023-03-17T10:01:38.281Z,7.80
2023-03-17T10:04:05.396Z,8.00
2023-03-17T10:06:38.871Z,8.20
2023-03-17T10:09:40.108Z,8.50
2023-03-17T10:12:44.914Z,8.80
2023-03-17T10:15:36.424Z,9.10
2023-03-17T10:18:14.071Z,9.30
2023-03-17T10:21:07.139Z,9.30
2023-03-17T10:23:37.762Z,9.20
2023-03-17T10:26:34.668Z,9.20
2023-03-17T10:29:10.741Z,9.10
2023-03-17T10:31:39.240Z,9.20
2023-03-17T10:34:29.152Z,9.20
2023-03-17T10:37:13.902Z,9.20
2023-03-17T10:39:54.591Z,9.30
2023-03-17T10:42:32.228Z,9.40
2023-03-17T10:45:25.988Z,9.50
2023-03-17T10:47:57.589Z,9.50
2023-03-17T10:50:32.456Z,9.60
2023-03-17T10:53:03.862Z,9.60
2023-03-17T10:55:42.641Z,9.50
2023-03-17T10:58:29.450Z,9.60
2023-03-17T11:01:08.391Z,9.50
2023-03-17T11:03:41.859Z,9.60
2023-03-17T11:06:14.581Z,9.60
2023-03-17T11:08:54.809Z,9.60
2023-03-17T11:11:34.584Z,9.60
2023-03-17T11:14:19.518Z,9.60
2023-03-17T11:16:58.213Z,9.60
2023-03-17T11:19:52.292Z,9.60
2023-03-17T11:22:40.995Z,9.70
2023-03-17T11:25:19.490Z,9.70
2023-03-17T11:28:06.597Z,9.70
2023-03-17T11:31:37.171Z,9.60
2023-03-17T11:34:25.478Z,9.70
2023-03-17T11:37:10.084Z,9.70
2023-03-17T11:40:20.580Z,9.80
2023-03-17T11:43:11.046Z,9.80
2023-03-17T11:46:06.114Z,9.90
2023-03-17T11:49:20.436Z,9.90
2023-03-17T11:52:19.695Z,10.00
2023-03-17T11:55:20.116Z,10.00
2023-03-17T11:57:58.659Z,9.90
2023-03-17T12:00:39.317Z,9.90
2023-03-17T12:03:30.131Z,9.90
2023-03-17T12:06:05.505Z,10.00
2023-03-17T12:08:53.652Z,10.00
2023-03-17T12:11:28.856Z,10.10
2023-03-17T12:14:05.621Z,10.10
2023-03-17T12:16:46.291Z,10.20
2023-03-17T12:19:26.202Z,10.30
2023-03-17T12:22:03.573Z,10.40
2023-03-17T12:24:41.018Z,10.40
2023-03-17T12:27:43.196Z,10.30
2023-03-17T12:30:30.903Z,10.30
2023-03-17T12:33:21.286Z,10.40
2023-03-17T12:35:48.912Z,10.40
2023-03-17T12:38:45.348Z,10.30
2023-03-17T12:41:52.168Z,10.40
2023-03-17T12:44:58.135Z,10.40
2023-03-17T12:47:50.336Z,10.40
2023-03-17T12:51:06.689Z,10.40
2023-03-17T12:53:42.260Z,10.40
2023-03-17T12:56:25.205Z,10.50
2023-03-17T12:58:58.818Z,10.50
2023-03-17T13:01:45.890Z,10.50
2023-03-17T13:04:35.475Z,10.50
2023-03-17T13:07:19.313Z,10.60
2023-03-17T13:09:54.969Z,10.60
2023-03-17T13:12:40.059Z,10.60
2023-03-17T13:15:25.516Z,10.70
2023-03-17T13:18:20.420Z,10.80
2023-03-17T13:20:56.547Z,10.80
2023-03-17T13:23:58.407Z,10.80
2023-03-17T13:27:00.857Z,10.80
2023-03-17T13:29:33.572Z,10.80
2023-03-17T13:32:15.577Z,10.80
2023-03-17T13:34:55.996Z,10.80
2023-03-17T13:37:28.642Z,10.80
2023-03-17T13:40:48.014Z,10.70
2023-03-17T13:43:37.949Z,10.60
2023-03-17T13:46:33.952Z,10.60
2023-03-17T13:49:19.302Z,10.60
2023-03-17T13:52:21.669Z,10.70
2023-03-17T13:54:59.817Z,10.70
2023-03-17T13:57:38.954Z,10.70
2023-03-17T14:00:27.875Z,10.60
2023-03-17T14:03:12.243Z,10.60
2023-03-17T14:05:41.860Z,10.60
2023-03-17T14:08:21.670Z,10.50
2023-03-17T14:10:57.822Z,10.50
2023-03-17T14:13:49.385Z,10.60
2023-03-17T14:16:32.063Z,10.50
2023-03-17T14:19:17.591Z,10.50
2023-03-17T14:21:44.625Z,10.50
2023-03-17T14:24:23.335Z,10.40
2023-03-17T14:26:52.658Z,10.40
2023-03-17T14:29:28.515Z,10.40
2023-03-17T14:32:13.441Z,10.30
2023-03-17T14:34:58.656Z,10.30
2023-03-17T14:37:27.281Z,10.30
2023-03-17T14:39:57.645Z,10.20
2023-03-17T14:42:31.154Z,10.20
2023-03-17T14:45:08.441Z,10.20
2023-03-17T14:47:42.720Z,10.20
2023-03-17T14:50:32.240Z,10.10
2023-03-17T14:53:00.849Z,10.20
2023-03-17T14:55:42.155Z,10.20
2023-03-17T14:58:38.236Z,10.20
2023-03-17T15:01:23.146Z,10.20
2023-03-17T15:04:12.085Z,10.20
2023-03-17T15:07:02.185Z,10.30
2023-03-17T15:09:37.795Z,10.30
2023-03-17T15:12:21.491Z,10.30
2023-03-17T15:14:54.240Z,10.30
2023-03-17T15:17:41.552Z,10.30
2023-03-17T15:20:17.792Z,10.30
2023-03-17T15:22:55.181Z,10.30
2023-03-17T15:25:38.513Z,10.20
2023-03-17T15:28:12.357Z,10.30
2023-03-17T15:30:51.468Z,10.20
2023-03-17T15:33:32.727Z,10.10
2023-03-17T15:36:02.841Z,10.10
2023-03-17T15:38:30.845Z,10.10
2023-03-17T15:40:58.121Z,10.10
2023-03-17T15:43:25.357Z,10.10
2023-03-17T15:46:02.495Z,10.00
2023-03-17T15:48:35.139Z,10.00
2023-03-17T15:51:04.708Z,10.00
2023-03-17T15:53:32.209Z,10.00
2023-03-17T15:55:59.237Z,9.90
2023-03-17T15:58:26.153Z,9.90
2023-03-17T16:00:57.243Z,9.90
2023-03-17T16:03:33.820Z,9.90
2023-03-17T16:06:03.287Z,9.80
2023-03-17T16:08:30.516Z,9.80
2023-03-17T16:10:57.508Z,9.80
2023-03-17T16:13:24.550Z,9.70
2023-03-17T16:15:58.991Z,9.70
2023-03-17T16:18:37.705Z,9.70
2023-03-17T16:21:05.628Z,9.60
2023-03-17T16:23:37.337Z,9.60
2023-03-17T16:26:15.033Z,9.50
2023-03-17T16:28:46.135Z,9.50
2023-03-17T16:31:22.195Z,9.50
2023-03-17T16:33:50.796Z,9.50
2023-03-17T16:36:21.479Z,9.40
2023-03-17T16:38:49.612Z,9.40
2023-03-17T16:41:27.464Z,9.30
2023-03-17T16:44:02.385Z,9.30
2023-03-17T16:46:35.373Z,9.30
2023-03-17T16:49:04.082Z,9.20
2023-03-17T16:51:31.182Z,9.20
2023-03-17T16:53:58.066Z,9.10
2023-03-17T16:56:27.280Z,9.10
2023-03-17T16:58:54.280Z,9.10
2023-03-17T17:01:28.414Z,9.10
2023-03-17T17:03:56.491Z,9.00
2023-03-17T17:06:24.310Z,9.00
2023-03-17T17:08:52.134Z,8.90
2023-03-17T17:11:20.515Z,8.90
2023-03-17T17:13:49.293Z,8.80
2023-03-17T17:16:25.406Z,8.80
2023-03-17T17:18:52.313Z,8.70
2023-03-17T17:21:19.826Z,8.70
2023-03-17T17:23:47.926Z,8.70
2023-03-17T17:26:21.690Z,8.60
2023-03-17T17:28:50.362Z,8.60
2023-03-17T17:31:25.754Z,8.60
2023-03-17T17:33:53.157Z,8.50
2023-03-17T17:36:20.296Z,8.50
2023-03-17T17:38:47.459Z,8.40
2023-03-17T17:41:16.873Z,8.40
2023-03-17T17:43:43.893Z,8.30
2023-03-17T17:46:21.303Z,8.30
2023-03-17T17:48:48.321Z,8.30
2023-03-17T17:51:15.807Z,8.30
2023-03-17T17:53:42.710Z,8.30
2023-03-17T17:56:17.894Z,8.30
2023-03-17T17:58:45.657Z,8.30
2023-03-17T18:01:14.219Z,8.20
2023-03-17T18:03:42.980Z,8.20
2023-03-17T18:06:10.689Z,8.20
2023-03-17T18:08:37.848Z,8.20
2023-03-17T18:11:05.597Z,8.20
2023-03-17T18:13:36.397Z,8.10
2023-03-17T18:16:04.124Z,8.10
2023-03-17T18:18:32.589Z,8.10
2023-03-17T18:20:59.870Z,8.10
2023-03-17T18:23:27.340Z,8.00
2023-03-17T18:26:00.932Z,8.00
2023-03-17T18:28:28.223Z,8.00
2023-03-17T18:30:59.596Z,7.90
2023-03-17T18:33:30.357Z,7.90
2023-03-17T18:35:57.964Z,7.80
2023-03-17T18:38:25.553Z,7.80
2023-03-17T18:40:56.042Z,7.80
2023-03-17T18:43:22.992Z,7.80
2023-03-17T18:45:49.922Z,7.70
2023-03-17T18:48:16.906Z,7.70
2023-03-17T18:50:43.823Z,7.70
2023-03-17T18:53:11.154Z,7.70
2023-03-17T18:55:38.130Z,7.60
2023-03-17T18:58:05.433Z,7.50
2023-03-17T19:00:33.175Z,7.50
2023-03-17T19:03:00.522Z,7.50
2023-03-17T19:05:27.782Z,7.50
2023-03-17T19:07:54.956Z,7.40
2023-03-17T19:10:21.947Z,7.40
2023-03-17T19:12:50.572Z,7.40
2023-03-17T19:15:17.627Z,7.30
2023-03-17T19:17:44.504Z,7.20
2023-03-17T19:20:13.127Z,7.20
2023-03-17T19:22:40.379Z,7.20
2023-03-17T19:25:08.771Z,7.10
2023-03-17T19:27:36.032Z,7.10
2023-03-17T19:30:02.907Z,7.10
2023-03-17T19:32:29.783Z,7.00
2023-03-17T19:34:56.675Z,7.00
2023-03-17T19:37:23.624Z,7.00
2023-03-17T19:39:50.625Z,6.90
2023-03-17T19:42:17.516Z,6.90
2023-03-17T19:44:44.793Z,6.90
2023-03-17T19:47:11.966Z,6.80
2023-03-17T19:49:38.832Z,6.80
2023-03-17T19:52:07.684Z,6.80
2023-03-17T19:54:37.725Z,6.80
2023-03-17T19:57:05.170Z,6.80
2023-03-17T19:59:32.074Z,6.80
2023-03-17T20:01:59.093Z,6.80
2023-03-17T20:04:25.979Z,6.70
2023-03-17T20:06:55.550Z,6.70
2023-03-17T20:09:26.188Z,6.70
2023-03-17T20:11:53.999Z,6.70
2023-03-17T20:14:21.480Z,6.70
2023-03-17T20:16:48.980Z,6.70
2023-03-17T20:19:17.935Z,6.70
2023-03-17T20:21:44.999Z,6.60
2023-03-17T20:24:14.550Z,6.60
2023-03-17T20:26:43.336Z,6.60
2023-03-17T20:29:14.434Z,6.50
2023-03-17T20:31:42.693Z,6.60
2023-03-17T20:34:11.735Z,6.60
2023-03-17T20:36:42.248Z,6.50
2023-03-17T20:39:14.765Z,6.50
2023-03-17T20:41:42.291Z,6.50
2023-03-17T20:44:09.312Z,6.50
2023-03-17T20:46:36.269Z,6.50
2023-03-17T20:49:04.069Z,6.50
2023-03-17T20:51:32.321Z,6.50
2023-03-17T20:54:00.716Z,6.40
2023-03-17T20:56:29.838Z,6.50
2023-03-17T20:58:58.493Z,6.40
2023-03-17T21:01:25.751Z,6.40
2023-03-17T21:03:53.535Z,6.50
2023-03-17T21:06:20.735Z,6.50
2023-03-17T21:08:47.695Z,6.40
2023-03-17T21:11:19.302Z,6.50
2023-03-17T21:13:47.079Z,6.50
2023-03-17T21:16:21.186Z,6.50
2023-03-17T21:18:48.609Z,6.60
2023-03-17T21:21:17.199Z,6.50
2023-03-17T21:23:44.748Z,6.50
2023-03-17T21:26:12.686Z,6.50
2023-03-17T21:28:41.588Z,6.50
2023-03-17T21:31:10.109Z,6.50
2023-03-17T21:33:37.381Z,6.50
2023-03-17T21:36:05.683Z,6.50
2023-03-17T21:38:32.729Z,6.50
2023-03-17T21:41:33.305Z,6.50
2023-03-17T21:44:02.414Z,6.50
2023-03-17T21:46:29.837Z,6.50
2023-03-17T21:48:57.152Z,6.40
2023-03-17T21:51:25.491Z,6.50
2023-03-17T21:53:53.027Z,6.40
2023-03-17T21:56:20.833Z,6.40
2023-03-17T21:58:48.977Z,6.40
2023-03-17T22:01:22.906Z,6.40
2023-03-17T22:03:52.139Z,6.40
2023-03-17T22:06:20.675Z,6.40
2023-03-17T22:08:48.749Z,6.40
2023-03-17T22:11:18.794Z,6.40
2023-03-17T22:13:46.724Z,6.40
2023-03-17T22:16:16.227Z,6.40
2023-03-17T22:18:43.496Z,6.30
2023-03-17T22:21:10.987Z,6.30
2023-03-17T22:23:42.338Z,6.30
2023-03-17T22:26:17.463Z,6.30
2023-03-17T22:28:46.263Z,6.40
2023-03-17T22:31:21.216Z,6.40
2023-03-17T22:33:52.317Z,6.40
2023-03-17T22:36:19.597Z,6.30
2023-03-17T22:38:47.007Z,6.30
2023-03-17T22:41:18.394Z,6.30
2023-03-17T22:43:46.829Z,6.20
2023-03-17T22:46:15.880Z,6.30
2023-03-17T22:48:43.397Z,6.20
2023-03-17T22:51:15.844Z,6.20
2023-03-17T22:53:43.832Z,6.30
2023-03-17T22:56:12.641Z,6.20
2023-03-17T22:58:40.467Z,6.20
2023-03-17T23:01:08.506Z,6.20
2023-03-17T23:03:36.092Z,6.10
2023-03-17T23:06:06.202Z,6.10
2023-03-17T23:08:36.638Z,6.10
2023-03-17T23:11:09.123Z,6.10
2023-03-17T23:13:36.771Z,6.10
2023-03-17T23:16:04.654Z,6.10
2023-03-17T23:18:32.643Z,6.10
2023-03-17T23:21:01.594Z,6.10
2023-03-17T23:23:29.248Z,6.10
2023-03-17T23:25:56.393Z,6.10
2023-03-17T23:28:24.116Z,6.10
2023-03-17T23:30:51.800Z,6.10
2023-03-17T23:33:21.515Z,6.10
2023-03-17T23:35:50.259Z,6.10
2023-03-17T23:38:21.692Z,6.10
2023-03-17T23:40:50.166Z,6.00
2023-03-17T23:43:17.371Z,6.00
2023-03-17T23:45:45.425Z,6.00
2023-03-17T23:48:12.547Z,6.00
2023-03-17T23:50:41.571Z,5.90
2023-03-17T23:53:09.604Z,5.90
2023-03-17T23:55:36.485Z,5.90
2023-03-17T23:58:03.707Z,5.90
